ADDS TAF Board (Experimental) INFO Settings

IDs: Format: Expanded Condensed

KIAD - Washington/Dulles In, VA, US

Issued at 1443 UTC 28 Apr 2015
Updated at: 1557 UTC 28 Apr 2015
Time1552Z 28/16Z 28/17Z 28/18Z 28/19Z 28/20Z 28/21Z 28/22Z 28/23Z 29/00Z 29/01Z 29/02Z 29/03Z 29/04Z
Type OBS PRVL PRVL PRVL PRVL PRVL PRVL PRVL PRVL PRVL PRVL PRVL PRVL PRVL
VIS 10 >6 >6 >6 >6 >6 >6 >6 >6 >6 >6 >6 >6 >6
CIG -- -- -- -- -- -- -- -- -- -- -- -- -- --
Cover FEW FEW FEW FEW FEW FEW FEW SCT SCT SCT SCT FEW FEW FEW
FltCat VFR VFR VFR VFR VFR VFR VFR VFR VFR VFR VFR VFR VFR VFR
WX -- -- -- -- -- -- -- -- -- -- -- -- -- --
WDir 350 320 320 320 320 320 320 330 330 330 330 VRB VRB VRB
WSpd 12 11 11 11 11 11 11 7 7 7 7 3 3 0
WGst 20 18 18 18 18 18 18 -- -- -- -- -- -- --
R01/19
XWnd 2 7 7 7 7 7 7 4 4 4 4 VRB VRB VRB
XGst 4 12 12 12 12 12 12 -- -- -- -- -- -- --
HWnd 12 8 8 8 8 8 8 6 6 6 6 VRB VRB VRB
HGst 20 14 14 14 14 14 14 -- -- -- -- -- -- --
R12/30
XWnd 10 5 5 5 5 5 5 4 4 4 4 VRB VRB VRB
XGst 17 9 9 9 9 9 9 -- -- -- -- -- -- --
HWnd -6 -10 -10 -10 -10 -10 -10 -5 -5 -5 -5 VRB VRB VRB
HGst -10 -16 -16 -16 -16 -16 -16 -- -- -- -- -- -- --

NOTE: TEMPO conditions in [brackets]. Keep in mind TEMPO conditions might be better (lower impact) than prevailing conditions.

Raw TAF
KIAD 281443Z 2815/2918 32011G18KT P6SM FEW050
  FM282200 33007KT P6SM SCT050
  FM290200 VRB03KT P6SM FEW050
  FM290400 00000KT P6SM FEW250


Raw METAR
KIAD 281552Z 35012G20KT 10SM FEW050 16/04 A2993 RMK AO2 SLP136 T01610044
KIAD 281452Z 34011G18KT 10SM FEW050 15/04 A2995 RMK AO2 SLP140 T01500044 50001
KIAD 281352Z 33011G18KT 10SM CLR 13/04 A2995 RMK AO2 SLP141 T01330039
KIAD 281252Z 32018G21KT 10SM FEW070 11/03 A2995 RMK AO2 SLP141 T01110028

METAR Board
Radar Display
Forecast Discussion

TAF Board Legend

Potential Impact
Threat None Slight Moderate High
Visibility (sm) ≥5.1 5.1>X≥3 3>X≥1 <1
Ceiling (100 ft) ≥30.1 30.1>X≥10 10>X≥5 <5
Wind Speed (kt) <10 10≤X<20 20≤X<30 ≥30
Wind Gust (kt) <15 15≤X<25 25≤X<35 ≥35
Weather No Wx Reported VCTS,-TS,-FZRA,SN TS,FZRA +TS,+FZRA,+SN